sensor_id;sensor_type;location;lat;lon;timestamp;P1;durP1;ratioP1;P2;durP2;ratioP2
70707;SDS011;58277;47.316;18.908;2023-05-14T00:00:15;12.33;;;8.17;;
70707;SDS011;58277;47.316;18.908;2023-05-14T00:02:38;13.10;;;7.63;;
70707;SDS011;58277;47.316;18.908;2023-05-14T00:05:01;13.18;;;8.40;;
70707;SDS011;58277;47.316;18.908;2023-05-14T00:07:23;13.30;;;8.13;;
70707;SDS011;58277;47.316;18.908;2023-05-14T00:09:52;13.68;;;8.48;;
70707;SDS011;58277;47.316;18.908;2023-05-14T00:12:14;13.27;;;7.93;;
70707;SDS011;58277;47.316;18.908;2023-05-14T00:14:37;14.45;;;8.02;;
70707;SDS011;58277;47.316;18.908;2023-05-14T00:17:00;12.35;;;7.70;;
70707;SDS011;58277;47.316;18.908;2023-05-14T00:19:23;12.55;;;7.32;;
70707;SDS011;58277;47.316;18.908;2023-05-14T00:21:46;12.70;;;8.32;;
70707;SDS011;58277;47.316;18.908;2023-05-14T00:24:09;15.50;;;7.73;;
70707;SDS011;58277;47.316;18.908;2023-05-14T00:26:32;15.82;;;8.57;;
70707;SDS011;58277;47.316;18.908;2023-05-14T00:28:55;15.05;;;8.88;;
70707;SDS011;58277;47.316;18.908;2023-05-14T00:31:17;18.33;;;8.60;;
70707;SDS011;58277;47.316;18.908;2023-05-14T00:33:40;14.75;;;8.25;;
70707;SDS011;58277;47.316;18.908;2023-05-14T00:36:03;14.10;;;8.33;;
70707;SDS011;58277;47.316;18.908;2023-05-14T00:38:25;15.20;;;8.25;;
70707;SDS011;58277;47.316;18.908;2023-05-14T00:40:48;14.82;;;8.60;;
70707;SDS011;58277;47.316;18.908;2023-05-14T00:43:14;14.10;;;8.38;;
70707;SDS011;58277;47.316;18.908;2023-05-14T00:45:37;15.10;;;8.43;;
70707;SDS011;58277;47.316;18.908;2023-05-14T00:48:00;15.17;;;8.40;;
70707;SDS011;58277;47.316;18.908;2023-05-14T00:50:23;12.90;;;8.13;;
70707;SDS011;58277;47.316;18.908;2023-05-14T00:52:46;14.30;;;8.38;;
70707;SDS011;58277;47.316;18.908;2023-05-14T00:55:10;14.05;;;7.40;;
70707;SDS011;58277;47.316;18.908;2023-05-14T00:57:38;13.02;;;8.45;;
70707;SDS011;58277;47.316;18.908;2023-05-14T01:00:02;14.60;;;7.90;;
70707;SDS011;58277;47.316;18.908;2023-05-14T01:02:25;15.05;;;8.30;;
70707;SDS011;58277;47.316;18.908;2023-05-14T01:04:49;14.23;;;8.70;;
70707;SDS011;58277;47.316;18.908;2023-05-14T01:15:24;14.05;;;7.25;;
70707;SDS011;58277;47.316;18.908;2023-05-14T01:17:58;12.00;;;7.88;;
70707;SDS011;58277;47.316;18.908;2023-05-14T01:20:26;14.68;;;8.20;;
70707;SDS011;58277;47.316;18.908;2023-05-14T01:22:48;13.60;;;7.97;;
70707;SDS011;58277;47.316;18.908;2023-05-14T01:25:11;12.95;;;7.70;;
70707;SDS011;58277;47.316;18.908;2023-05-14T01:27:36;12.00;;;7.30;;
70707;SDS011;58277;47.316;18.908;2023-05-14T01:32:54;14.65;;;8.30;;
70707;SDS011;58277;47.316;18.908;2023-05-14T01:35:21;13.73;;;7.97;;
70707;SDS011;58277;47.316;18.908;2023-05-14T01:37:47;14.00;;;8.03;;
70707;SDS011;58277;47.316;18.908;2023-05-14T01:40:11;14.02;;;7.68;;
70707;SDS011;58277;47.316;18.908;2023-05-14T01:42:35;14.20;;;7.63;;
70707;SDS011;58277;47.316;18.908;2023-05-14T01:44:58;13.52;;;7.90;;
70707;SDS011;58277;47.316;18.908;2023-05-14T01:47:22;13.13;;;8.07;;
70707;SDS011;58277;47.316;18.908;2023-05-14T01:49:44;15.00;;;8.02;;
70707;SDS011;58277;47.316;18.908;2023-05-14T01:52:07;13.57;;;7.68;;
70707;SDS011;58277;47.316;18.908;2023-05-14T01:54:30;13.07;;;7.40;;
70707;SDS011;58277;47.316;18.908;2023-05-14T01:56:52;13.52;;;7.50;;
70707;SDS011;58277;47.316;18.908;2023-05-14T01:59:15;11.82;;;7.38;;
70707;SDS011;58277;47.316;18.908;2023-05-14T02:01:38;13.40;;;7.40;;
70707;SDS011;58277;47.316;18.908;2023-05-14T02:04:00;13.38;;;7.40;;
70707;SDS011;58277;47.316;18.908;2023-05-14T02:06:23;12.68;;;7.53;;
70707;SDS011;58277;47.316;18.908;2023-05-14T02:08:46;13.02;;;7.47;;
70707;SDS011;58277;47.316;18.908;2023-05-14T02:11:09;12.70;;;6.95;;
70707;SDS011;58277;47.316;18.908;2023-05-14T02:13:31;12.40;;;6.63;;
70707;SDS011;58277;47.316;18.908;2023-05-14T02:15:54;12.05;;;7.60;;
70707;SDS011;58277;47.316;18.908;2023-05-14T02:18:17;13.18;;;7.55;;
70707;SDS011;58277;47.316;18.908;2023-05-14T02:20:40;11.25;;;7.30;;
70707;SDS011;58277;47.316;18.908;2023-05-14T02:23:03;11.52;;;7.25;;
70707;SDS011;58277;47.316;18.908;2023-05-14T02:25:26;12.07;;;7.45;;
70707;SDS011;58277;47.316;18.908;2023-05-14T02:27:48;14.52;;;7.55;;
70707;SDS011;58277;47.316;18.908;2023-05-14T02:30:11;12.73;;;7.68;;
70707;SDS011;58277;47.316;18.908;2023-05-14T02:32:34;14.20;;;7.40;;
70707;SDS011;58277;47.316;18.908;2023-05-14T02:34:57;12.48;;;7.75;;
70707;SDS011;58277;47.316;18.908;2023-05-14T02:37:20;12.02;;;7.47;;
70707;SDS011;58277;47.316;18.908;2023-05-14T02:39:43;11.52;;;6.90;;
70707;SDS011;58277;47.316;18.908;2023-05-14T02:42:05;14.02;;;7.15;;
70707;SDS011;58277;47.316;18.908;2023-05-14T02:44:28;13.98;;;7.57;;
70707;SDS011;58277;47.316;18.908;2023-05-14T02:46:53;13.68;;;7.43;;
70707;SDS011;58277;47.316;18.908;2023-05-14T02:49:16;11.37;;;6.30;;
70707;SDS011;58277;47.316;18.908;2023-05-14T02:51:38;13.85;;;7.60;;
70707;SDS011;58277;47.316;18.908;2023-05-14T02:54:01;14.55;;;7.53;;
70707;SDS011;58277;47.316;18.908;2023-05-14T02:56:23;13.13;;;7.22;;
70707;SDS011;58277;47.316;18.908;2023-05-14T02:58:47;12.10;;;6.63;;
70707;SDS011;58277;47.316;18.908;2023-05-14T03:01:10;11.00;;;6.60;;
70707;SDS011;58277;47.316;18.908;2023-05-14T03:03:35;10.93;;;7.18;;
70707;SDS011;58277;47.316;18.908;2023-05-14T03:05:58;13.57;;;7.28;;
70707;SDS011;58277;47.316;18.908;2023-05-14T03:08:21;12.85;;;7.68;;
70707;SDS011;58277;47.316;18.908;2023-05-14T03:10:43;12.27;;;7.20;;
70707;SDS011;58277;47.316;18.908;2023-05-14T03:13:06;12.40;;;7.20;;
70707;SDS011;58277;47.316;18.908;2023-05-14T03:15:29;11.57;;;6.68;;
70707;SDS011;58277;47.316;18.908;2023-05-14T03:17:51;10.82;;;6.90;;
70707;SDS011;58277;47.316;18.908;2023-05-14T03:20:14;12.07;;;7.00;;
70707;SDS011;58277;47.316;18.908;2023-05-14T03:22:37;12.00;;;7.47;;
70707;SDS011;58277;47.316;18.908;2023-05-14T03:24:59;12.50;;;7.43;;
70707;SDS011;58277;47.316;18.908;2023-05-14T03:27:23;12.02;;;7.35;;
70707;SDS011;58277;47.316;18.908;2023-05-14T03:29:46;11.63;;;7.13;;
70707;SDS011;58277;47.316;18.908;2023-05-14T03:32:09;11.05;;;6.93;;
70707;SDS011;58277;47.316;18.908;2023-05-14T03:34:31;14.50;;;7.45;;
70707;SDS011;58277;47.316;18.908;2023-05-14T03:36:54;12.95;;;6.72;;
70707;SDS011;58277;47.316;18.908;2023-05-14T03:39:17;10.77;;;6.78;;
70707;SDS011;58277;47.316;18.908;2023-05-14T03:41:41;12.77;;;7.20;;
70707;SDS011;58277;47.316;18.908;2023-05-14T03:44:03;12.27;;;7.07;;
70707;SDS011;58277;47.316;18.908;2023-05-14T03:46:27;11.60;;;7.10;;
70707;SDS011;58277;47.316;18.908;2023-05-14T03:48:50;12.07;;;7.03;;
70707;SDS011;58277;47.316;18.908;2023-05-14T03:51:13;12.18;;;7.53;;
70707;SDS011;58277;47.316;18.908;2023-05-14T03:53:36;12.57;;;7.30;;
70707;SDS011;58277;47.316;18.908;2023-05-14T03:55:58;12.23;;;7.68;;
70707;SDS011;58277;47.316;18.908;2023-05-14T03:58:21;12.88;;;7.18;;
70707;SDS011;58277;47.316;18.908;2023-05-14T04:00:44;13.73;;;7.65;;
70707;SDS011;58277;47.316;18.908;2023-05-14T04:03:06;14.38;;;7.30;;
70707;SDS011;58277;47.316;18.908;2023-05-14T04:05:29;11.55;;;7.07;;
70707;SDS011;58277;47.316;18.908;2023-05-14T04:07:52;13.98;;;7.40;;
70707;SDS011;58277;47.316;18.908;2023-05-14T04:10:15;13.77;;;7.80;;
70707;SDS011;58277;47.316;18.908;2023-05-14T04:12:37;11.40;;;7.27;;
70707;SDS011;58277;47.316;18.908;2023-05-14T04:15:00;10.35;;;6.78;;
70707;SDS011;58277;47.316;18.908;2023-05-14T04:17:23;12.00;;;7.40;;
70707;SDS011;58277;47.316;18.908;2023-05-14T04:19:46;12.75;;;7.72;;
70707;SDS011;58277;47.316;18.908;2023-05-14T04:22:08;11.95;;;6.55;;
70707;SDS011;58277;47.316;18.908;2023-05-14T04:24:31;12.27;;;7.27;;
70707;SDS011;58277;47.316;18.908;2023-05-14T04:26:54;12.65;;;7.22;;
70707;SDS011;58277;47.316;18.908;2023-05-14T04:29:16;11.93;;;6.97;;
70707;SDS011;58277;47.316;18.908;2023-05-14T04:31:39;11.18;;;6.85;;
70707;SDS011;58277;47.316;18.908;2023-05-14T04:34:02;12.25;;;7.05;;
70707;SDS011;58277;47.316;18.908;2023-05-14T04:36:24;14.48;;;6.85;;
70707;SDS011;58277;47.316;18.908;2023-05-14T04:38:47;12.27;;;7.38;;
70707;SDS011;58277;47.316;18.908;2023-05-14T04:41:10;11.05;;;6.78;;
70707;SDS011;58277;47.316;18.908;2023-05-14T04:43:32;11.70;;;7.20;;
70707;SDS011;58277;47.316;18.908;2023-05-14T04:45:55;11.32;;;7.20;;
70707;SDS011;58277;47.316;18.908;2023-05-14T04:48:18;12.00;;;6.93;;
70707;SDS011;58277;47.316;18.908;2023-05-14T04:50:41;11.45;;;7.20;;
70707;SDS011;58277;47.316;18.908;2023-05-14T04:53:05;12.65;;;6.65;;
70707;SDS011;58277;47.316;18.908;2023-05-14T04:55:28;12.52;;;7.38;;
70707;SDS011;58277;47.316;18.908;2023-05-14T04:57:50;12.13;;;7.05;;
70707;SDS011;58277;47.316;18.908;2023-05-14T05:00:13;12.13;;;7.20;;
70707;SDS011;58277;47.316;18.908;2023-05-14T05:02:37;10.63;;;6.70;;
70707;SDS011;58277;47.316;18.908;2023-05-14T05:05:00;9.45;;;6.30;;
70707;SDS011;58277;47.316;18.908;2023-05-14T05:07:23;11.60;;;7.53;;
70707;SDS011;58277;47.316;18.908;2023-05-14T05:09:45;11.32;;;7.30;;
70707;SDS011;58277;47.316;18.908;2023-05-14T05:12:08;11.23;;;7.13;;
70707;SDS011;58277;47.316;18.908;2023-05-14T05:14:30;11.52;;;7.32;;
70707;SDS011;58277;47.316;18.908;2023-05-14T05:16:53;12.20;;;7.13;;
70707;SDS011;58277;47.316;18.908;2023-05-14T05:19:16;14.38;;;7.03;;
70707;SDS011;58277;47.316;18.908;2023-05-14T05:21:39;10.95;;;6.50;;
70707;SDS011;58277;47.316;18.908;2023-05-14T05:24:02;12.38;;;6.65;;
70707;SDS011;58277;47.316;18.908;2023-05-14T05:26:25;11.80;;;7.28;;
70707;SDS011;58277;47.316;18.908;2023-05-14T05:28:48;10.30;;;6.90;;
70707;SDS011;58277;47.316;18.908;2023-05-14T05:31:10;12.88;;;7.45;;
70707;SDS011;58277;47.316;18.908;2023-05-14T05:33:34;13.90;;;7.13;;
70707;SDS011;58277;47.316;18.908;2023-05-14T05:35:57;11.13;;;6.93;;
70707;SDS011;58277;47.316;18.908;2023-05-14T05:38:19;11.93;;;6.75;;
70707;SDS011;58277;47.316;18.908;2023-05-14T05:40:42;14.82;;;7.25;;
70707;SDS011;58277;47.316;18.908;2023-05-14T05:43:05;12.98;;;7.40;;
70707;SDS011;58277;47.316;18.908;2023-05-14T05:45:27;11.00;;;7.22;;
70707;SDS011;58277;47.316;18.908;2023-05-14T05:47:50;10.77;;;7.18;;
70707;SDS011;58277;47.316;18.908;2023-05-14T05:50:13;11.90;;;7.47;;
70707;SDS011;58277;47.316;18.908;2023-05-14T05:52:36;12.35;;;7.60;;
70707;SDS011;58277;47.316;18.908;2023-05-14T05:54:59;10.88;;;7.40;;
70707;SDS011;58277;47.316;18.908;2023-05-14T05:57:22;13.65;;;7.93;;
70707;SDS011;58277;47.316;18.908;2023-05-14T05:59:47;12.85;;;7.53;;
70707;SDS011;58277;47.316;18.908;2023-05-14T06:02:10;11.35;;;7.47;;
70707;SDS011;58277;47.316;18.908;2023-05-14T06:04:32;14.15;;;7.65;;
70707;SDS011;58277;47.316;18.908;2023-05-14T06:06:55;11.77;;;7.82;;
70707;SDS011;58277;47.316;18.908;2023-05-14T06:09:18;11.52;;;7.00;;
70707;SDS011;58277;47.316;18.908;2023-05-14T06:11:40;12.60;;;7.38;;
70707;SDS011;58277;47.316;18.908;2023-05-14T06:14:03;11.77;;;7.28;;
70707;SDS011;58277;47.316;18.908;2023-05-14T06:16:26;11.93;;;7.75;;
70707;SDS011;58277;47.316;18.908;2023-05-14T06:18:48;12.25;;;7.50;;
70707;SDS011;58277;47.316;18.908;2023-05-14T06:21:13;13.45;;;7.85;;
70707;SDS011;58277;47.316;18.908;2023-05-14T06:23:36;12.93;;;7.63;;
70707;SDS011;58277;47.316;18.908;2023-05-14T06:25:58;11.85;;;7.35;;
70707;SDS011;58277;47.316;18.908;2023-05-14T06:28:21;11.80;;;7.35;;
70707;SDS011;58277;47.316;18.908;2023-05-14T06:30:44;13.00;;;7.55;;
70707;SDS011;58277;47.316;18.908;2023-05-14T06:33:07;11.75;;;7.57;;
70707;SDS011;58277;47.316;18.908;2023-05-14T06:35:30;13.00;;;7.80;;
70707;SDS011;58277;47.316;18.908;2023-05-14T06:37:54;13.80;;;8.02;;
70707;SDS011;58277;47.316;18.908;2023-05-14T06:40:17;14.00;;;7.95;;
70707;SDS011;58277;47.316;18.908;2023-05-14T06:42:40;13.05;;;7.70;;
70707;SDS011;58277;47.316;18.908;2023-05-14T06:45:03;12.05;;;7.78;;
70707;SDS011;58277;47.316;18.908;2023-05-14T06:47:27;13.67;;;7.97;;
70707;SDS011;58277;47.316;18.908;2023-05-14T06:49:49;15.85;;;8.45;;
70707;SDS011;58277;47.316;18.908;2023-05-14T06:52:12;12.13;;;7.90;;
70707;SDS011;58277;47.316;18.908;2023-05-14T06:54:35;13.10;;;8.23;;
70707;SDS011;58277;47.316;18.908;2023-05-14T06:56:57;13.65;;;7.68;;
70707;SDS011;58277;47.316;18.908;2023-05-14T06:59:20;12.48;;;8.00;;
70707;SDS011;58277;47.316;18.908;2023-05-14T07:01:43;12.38;;;7.80;;
70707;SDS011;58277;47.316;18.908;2023-05-14T07:04:05;14.80;;;7.63;;
70707;SDS011;58277;47.316;18.908;2023-05-14T07:06:28;13.88;;;8.13;;
70707;SDS011;58277;47.316;18.908;2023-05-14T07:08:51;12.50;;;7.97;;
70707;SDS011;58277;47.316;18.908;2023-05-14T07:11:14;13.60;;;8.25;;
70707;SDS011;58277;47.316;18.908;2023-05-14T07:13:37;13.50;;;8.20;;
70707;SDS011;58277;47.316;18.908;2023-05-14T07:15:59;11.93;;;8.05;;
70707;SDS011;58277;47.316;18.908;2023-05-14T07:18:22;14.32;;;8.50;;
70707;SDS011;58277;47.316;18.908;2023-05-14T07:20:45;12.88;;;8.25;;
70707;SDS011;58277;47.316;18.908;2023-05-14T07:23:08;12.88;;;8.32;;
70707;SDS011;58277;47.316;18.908;2023-05-14T07:25:30;14.30;;;8.68;;
70707;SDS011;58277;47.316;18.908;2023-05-14T07:27:53;14.73;;;8.38;;
70707;SDS011;58277;47.316;18.908;2023-05-14T07:30:16;15.23;;;8.57;;
70707;SDS011;58277;47.316;18.908;2023-05-14T07:32:39;15.30;;;8.05;;
70707;SDS011;58277;47.316;18.908;2023-05-14T07:35:03;12.60;;;8.15;;
70707;SDS011;58277;47.316;18.908;2023-05-14T07:37:26;14.65;;;8.48;;
70707;SDS011;58277;47.316;18.908;2023-05-14T07:39:49;14.38;;;8.75;;
70707;SDS011;58277;47.316;18.908;2023-05-14T07:42:11;12.50;;;7.90;;
70707;SDS011;58277;47.316;18.908;2023-05-14T07:44:49;16.05;;;8.75;;
70707;SDS011;58277;47.316;18.908;2023-05-14T07:47:12;12.60;;;8.00;;
70707;SDS011;58277;47.316;18.908;2023-05-14T07:49:35;14.07;;;8.45;;
70707;SDS011;58277;47.316;18.908;2023-05-14T07:51:58;11.68;;;8.15;;
70707;SDS011;58277;47.316;18.908;2023-05-14T07:54:21;13.75;;;8.43;;
70707;SDS011;58277;47.316;18.908;2023-05-14T07:56:44;13.63;;;8.07;;
70707;SDS011;58277;47.316;18.908;2023-05-14T07:59:06;12.25;;;7.85;;
70707;SDS011;58277;47.316;18.908;2023-05-14T08:01:29;11.75;;;7.60;;
70707;SDS011;58277;47.316;18.908;2023-05-14T08:03:52;13.32;;;7.88;;
70707;SDS011;58277;47.316;18.908;2023-05-14T08:06:16;16.83;;;8.07;;
70707;SDS011;58277;47.316;18.908;2023-05-14T08:08:39;12.02;;;7.85;;
70707;SDS011;58277;47.316;18.908;2023-05-14T08:11:02;13.63;;;8.23;;
70707;SDS011;58277;47.316;18.908;2023-05-14T08:13:25;13.23;;;8.35;;
70707;SDS011;58277;47.316;18.908;2023-05-14T08:15:47;13.35;;;8.40;;
70707;SDS011;58277;47.316;18.908;2023-05-14T08:18:10;14.80;;;8.10;;
70707;SDS011;58277;47.316;18.908;2023-05-14T08:20:33;14.77;;;8.30;;
70707;SDS011;58277;47.316;18.908;2023-05-14T08:22:56;13.15;;;8.00;;
70707;SDS011;58277;47.316;18.908;2023-05-14T08:25:19;12.38;;;8.05;;
70707;SDS011;58277;47.316;18.908;2023-05-14T08:27:42;12.63;;;8.20;;
70707;SDS011;58277;47.316;18.908;2023-05-14T08:30:04;12.85;;;7.95;;
70707;SDS011;58277;47.316;18.908;2023-05-14T08:32:28;14.02;;;8.10;;
70707;SDS011;58277;47.316;18.908;2023-05-14T08:34:50;13.20;;;8.40;;
70707;SDS011;58277;47.316;18.908;2023-05-14T08:37:13;14.95;;;8.70;;
70707;SDS011;58277;47.316;18.908;2023-05-14T08:39:36;13.02;;;8.48;;
70707;SDS011;58277;47.316;18.908;2023-05-14T08:41:59;12.68;;;8.48;;
70707;SDS011;58277;47.316;18.908;2023-05-14T08:45:07;14.05;;;8.40;;
70707;SDS011;58277;47.316;18.908;2023-05-14T08:47:11;13.63;;;8.38;;
70707;SDS011;58277;47.316;18.908;2023-05-14T08:49:40;14.70;;;9.23;;
70707;SDS011;58277;47.316;18.908;2023-05-14T08:52:04;13.05;;;8.20;;
70707;SDS011;58277;47.316;18.908;2023-05-14T08:54:27;15.50;;;8.20;;
70707;SDS011;58277;47.316;18.908;2023-05-14T08:56:51;14.80;;;9.02;;
70707;SDS011;58277;47.316;18.908;2023-05-14T08:59:14;15.05;;;8.63;;
70707;SDS011;58277;47.316;18.908;2023-05-14T09:01:37;14.23;;;8.00;;
70707;SDS011;58277;47.316;18.908;2023-05-14T09:04:03;13.55;;;8.20;;
70707;SDS011;58277;47.316;18.908;2023-05-14T09:06:29;13.65;;;8.45;;
70707;SDS011;58277;47.316;18.908;2023-05-14T09:08:53;14.18;;;8.00;;
70707;SDS011;58277;47.316;18.908;2023-05-14T09:11:17;12.73;;;7.93;;
70707;SDS011;58277;47.316;18.908;2023-05-14T09:13:40;14.20;;;8.30;;
70707;SDS011;58277;47.316;18.908;2023-05-14T09:16:03;12.57;;;8.15;;
70707;SDS011;58277;47.316;18.908;2023-05-14T09:18:26;14.00;;;8.55;;
70707;SDS011;58277;47.316;18.908;2023-05-14T09:20:48;14.30;;;8.77;;
70707;SDS011;58277;47.316;18.908;2023-05-14T09:23:13;13.35;;;8.50;;
70707;SDS011;58277;47.316;18.908;2023-05-14T09:25:36;14.35;;;8.60;;
70707;SDS011;58277;47.316;18.908;2023-05-14T09:27:58;13.05;;;8.43;;
70707;SDS011;58277;47.316;18.908;2023-05-14T09:30:25;14.02;;;8.35;;
70707;SDS011;58277;47.316;18.908;2023-05-14T09:32:48;13.45;;;8.20;;
70707;SDS011;58277;47.316;18.908;2023-05-14T09:38:30;14.48;;;8.85;;
70707;SDS011;58277;47.316;18.908;2023-05-14T09:40:54;15.43;;;9.07;;
70707;SDS011;58277;47.316;18.908;2023-05-14T09:43:17;14.82;;;8.63;;
70707;SDS011;58277;47.316;18.908;2023-05-14T09:45:40;13.95;;;8.80;;
70707;SDS011;58277;47.316;18.908;2023-05-14T09:48:02;15.52;;;9.00;;
70707;SDS011;58277;47.316;18.908;2023-05-14T09:50:25;13.57;;;9.07;;
70707;SDS011;58277;47.316;18.908;2023-05-14T09:52:48;14.82;;;9.05;;
70707;SDS011;58277;47.316;18.908;2023-05-14T09:55:11;15.02;;;9.10;;
70707;SDS011;58277;47.316;18.908;2023-05-14T09:57:34;14.40;;;9.15;;
70707;SDS011;58277;47.316;18.908;2023-05-14T09:59:56;16.80;;;9.55;;
70707;SDS011;58277;47.316;18.908;2023-05-14T10:02:23;14.07;;;8.55;;
70707;SDS011;58277;47.316;18.908;2023-05-14T10:04:51;18.10;;;9.15;;
70707;SDS011;58277;47.316;18.908;2023-05-14T10:07:15;18.52;;;10.73;;
70707;SDS011;58277;47.316;18.908;2023-05-14T10:09:40;16.70;;;9.63;;
70707;SDS011;58277;47.316;18.908;2023-05-14T10:12:05;15.15;;;9.13;;
70707;SDS011;58277;47.316;18.908;2023-05-14T10:14:39;15.80;;;9.68;;
70707;SDS011;58277;47.316;18.908;2023-05-14T10:17:04;16.10;;;9.75;;
70707;SDS011;58277;47.316;18.908;2023-05-14T10:19:27;17.08;;;9.50;;
70707;SDS011;58277;47.316;18.908;2023-05-14T10:21:56;17.67;;;10.07;;
70707;SDS011;58277;47.316;18.908;2023-05-14T10:24:25;16.20;;;9.32;;
70707;SDS011;58277;47.316;18.908;2023-05-14T10:26:48;17.48;;;9.68;;
70707;SDS011;58277;47.316;18.908;2023-05-14T10:29:11;16.20;;;9.88;;
70707;SDS011;58277;47.316;18.908;2023-05-14T10:31:43;18.65;;;10.23;;
70707;SDS011;58277;47.316;18.908;2023-05-14T10:36:52;16.25;;;9.27;;
70707;SDS011;58277;47.316;18.908;2023-05-14T10:39:15;21.70;;;10.27;;
70707;SDS011;58277;47.316;18.908;2023-05-14T10:41:38;16.13;;;9.88;;
70707;SDS011;58277;47.316;18.908;2023-05-14T10:44:06;19.75;;;10.15;;
70707;SDS011;58277;47.316;18.908;2023-05-14T10:46:30;16.65;;;9.95;;
70707;SDS011;58277;47.316;18.908;2023-05-14T10:48:53;15.77;;;9.85;;
70707;SDS011;58277;47.316;18.908;2023-05-14T10:51:16;15.13;;;9.80;;
70707;SDS011;58277;47.316;18.908;2023-05-14T10:53:42;16.75;;;10.05;;
70707;SDS011;58277;47.316;18.908;2023-05-14T10:56:06;15.32;;;9.75;;
70707;SDS011;58277;47.316;18.908;2023-05-14T10:58:30;14.18;;;8.27;;
70707;SDS011;58277;47.316;18.908;2023-05-14T11:00:56;17.15;;;9.88;;
70707;SDS011;58277;47.316;18.908;2023-05-14T11:03:19;17.55;;;9.73;;
70707;SDS011;58277;47.316;18.908;2023-05-14T11:05:42;15.30;;;9.70;;
70707;SDS011;58277;47.316;18.908;2023-05-14T11:08:06;17.80;;;9.57;;
70707;SDS011;58277;47.316;18.908;2023-05-14T11:10:29;16.55;;;10.00;;
70707;SDS011;58277;47.316;18.908;2023-05-14T11:12:52;16.23;;;10.00;;
70707;SDS011;58277;47.316;18.908;2023-05-14T11:15:16;18.60;;;10.00;;
70707;SDS011;58277;47.316;18.908;2023-05-14T11:17:40;18.55;;;9.60;;
70707;SDS011;58277;47.316;18.908;2023-05-14T11:20:04;15.23;;;9.23;;
70707;SDS011;58277;47.316;18.908;2023-05-14T11:22:30;15.77;;;9.73;;
70707;SDS011;58277;47.316;18.908;2023-05-14T11:24:52;16.23;;;9.05;;
70707;SDS011;58277;47.316;18.908;2023-05-14T11:27:16;18.38;;;10.65;;
70707;SDS011;58277;47.316;18.908;2023-05-14T11:29:42;14.55;;;9.52;;
70707;SDS011;58277;47.316;18.908;2023-05-14T11:32:08;15.13;;;9.13;;
70707;SDS011;58277;47.316;18.908;2023-05-14T11:34:31;15.80;;;9.57;;
70707;SDS011;58277;47.316;18.908;2023-05-14T11:36:55;18.67;;;9.73;;
70707;SDS011;58277;47.316;18.908;2023-05-14T11:39:18;15.00;;;9.13;;
70707;SDS011;58277;47.316;18.908;2023-05-14T11:41:44;16.98;;;10.00;;
70707;SDS011;58277;47.316;18.908;2023-05-14T11:44:09;16.83;;;9.95;;
70707;SDS011;58277;47.316;18.908;2023-05-14T11:46:32;14.88;;;9.23;;
70707;SDS011;58277;47.316;18.908;2023-05-14T11:48:54;14.50;;;9.45;;
70707;SDS011;58277;47.316;18.908;2023-05-14T11:51:17;16.08;;;9.77;;
70707;SDS011;58277;47.316;18.908;2023-05-14T11:53:39;15.73;;;9.40;;
70707;SDS011;58277;47.316;18.908;2023-05-14T11:56:02;14.50;;;9.35;;
70707;SDS011;58277;47.316;18.908;2023-05-14T11:58:25;17.05;;;9.60;;
70707;SDS011;58277;47.316;18.908;2023-05-14T12:00:51;17.85;;;9.95;;
70707;SDS011;58277;47.316;18.908;2023-05-14T12:03:14;16.58;;;10.00;;
70707;SDS011;58277;47.316;18.908;2023-05-14T12:05:38;14.77;;;9.02;;
70707;SDS011;58277;47.316;18.908;2023-05-14T12:08:01;17.40;;;9.48;;
70707;SDS011;58277;47.316;18.908;2023-05-14T12:10:23;16.20;;;10.00;;
70707;SDS011;58277;47.316;18.908;2023-05-14T12:12:47;17.33;;;9.10;;
70707;SDS011;58277;47.316;18.908;2023-05-14T12:15:13;16.55;;;9.20;;
70707;SDS011;58277;47.316;18.908;2023-05-14T12:17:37;16.80;;;9.95;;
70707;SDS011;58277;47.316;18.908;2023-05-14T12:20:00;15.90;;;9.90;;
70707;SDS011;58277;47.316;18.908;2023-05-14T12:22:23;16.38;;;9.50;;
70707;SDS011;58277;47.316;18.908;2023-05-14T12:24:56;14.60;;;9.33;;
70707;SDS011;58277;47.316;18.908;2023-05-14T12:27:23;16.92;;;9.93;;
70707;SDS011;58277;47.316;18.908;2023-05-14T12:29:49;18.63;;;10.35;;
70707;SDS011;58277;47.316;18.908;2023-05-14T12:32:31;17.48;;;10.38;;
70707;SDS011;58277;47.316;18.908;2023-05-14T12:34:54;18.50;;;10.50;;
70707;SDS011;58277;47.316;18.908;2023-05-14T12:37:16;17.67;;;10.87;;
70707;SDS011;58277;47.316;18.908;2023-05-14T12:39:39;18.55;;;10.43;;
70707;SDS011;58277;47.316;18.908;2023-05-14T12:42:02;20.30;;;11.23;;
70707;SDS011;58277;47.316;18.908;2023-05-14T12:44:25;20.08;;;11.32;;
70707;SDS011;58277;47.316;18.908;2023-05-14T12:46:47;17.38;;;10.88;;
70707;SDS011;58277;47.316;18.908;2023-05-14T12:49:10;18.88;;;11.50;;
70707;SDS011;58277;47.316;18.908;2023-05-14T12:51:33;19.17;;;10.65;;
70707;SDS011;58277;47.316;18.908;2023-05-14T12:53:55;17.95;;;10.38;;
70707;SDS011;58277;47.316;18.908;2023-05-14T12:56:18;21.95;;;10.55;;
70707;SDS011;58277;47.316;18.908;2023-05-14T12:58:41;21.02;;;11.90;;
70707;SDS011;58277;47.316;18.908;2023-05-14T13:01:04;22.70;;;12.13;;
70707;SDS011;58277;47.316;18.908;2023-05-14T13:03:27;21.55;;;12.23;;
70707;SDS011;58277;47.316;18.908;2023-05-14T13:05:50;21.80;;;12.60;;
70707;SDS011;58277;47.316;18.908;2023-05-14T13:08:13;23.75;;;12.75;;
70707;SDS011;58277;47.316;18.908;2023-05-14T13:10:39;22.52;;;12.30;;
70707;SDS011;58277;47.316;18.908;2023-05-14T13:13:01;21.43;;;12.10;;
70707;SDS011;58277;47.316;18.908;2023-05-14T13:15:24;21.58;;;11.95;;
70707;SDS011;58277;47.316;18.908;2023-05-14T13:17:47;23.50;;;12.70;;
70707;SDS011;58277;47.316;18.908;2023-05-14T13:20:10;21.90;;;12.07;;
70707;SDS011;58277;47.316;18.908;2023-05-14T13:22:33;23.20;;;12.75;;
70707;SDS011;58277;47.316;18.908;2023-05-14T13:24:55;26.83;;;13.73;;
70707;SDS011;58277;47.316;18.908;2023-05-14T13:27:18;26.10;;;14.45;;
70707;SDS011;58277;47.316;18.908;2023-05-14T13:29:41;27.35;;;14.93;;
70707;SDS011;58277;47.316;18.908;2023-05-14T13:32:03;24.10;;;13.57;;
70707;SDS011;58277;47.316;18.908;2023-05-14T13:34:26;26.92;;;14.32;;
70707;SDS011;58277;47.316;18.908;2023-05-14T13:36:49;26.20;;;14.17;;
70707;SDS011;58277;47.316;18.908;2023-05-14T13:39:12;23.25;;;13.77;;
70707;SDS011;58277;47.316;18.908;2023-05-14T13:41:35;29.70;;;14.30;;
70707;SDS011;58277;47.316;18.908;2023-05-14T13:43:59;28.02;;;14.95;;
70707;SDS011;58277;47.316;18.908;2023-05-14T13:46:22;26.20;;;14.70;;
70707;SDS011;58277;47.316;18.908;2023-05-14T13:48:44;28.73;;;14.85;;
70707;SDS011;58277;47.316;18.908;2023-05-14T13:51:07;29.92;;;15.10;;
70707;SDS011;58277;47.316;18.908;2023-05-14T13:53:30;26.35;;;14.52;;
70707;SDS011;58277;47.316;18.908;2023-05-14T13:55:52;28.73;;;15.30;;
70707;SDS011;58277;47.316;18.908;2023-05-14T13:58:17;27.20;;;14.73;;
70707;SDS011;58277;47.316;18.908;2023-05-14T14:00:40;23.67;;;14.10;;
70707;SDS011;58277;47.316;18.908;2023-05-14T14:03:04;27.05;;;13.23;;
70707;SDS011;58277;47.316;18.908;2023-05-14T14:05:26;22.10;;;12.95;;
70707;SDS011;58277;47.316;18.908;2023-05-14T14:07:50;25.05;;;14.07;;
70707;SDS011;58277;47.316;18.908;2023-05-14T14:10:18;22.98;;;12.90;;
70707;SDS011;58277;47.316;18.908;2023-05-14T14:12:42;21.42;;;12.20;;